Tiempo atmosférico en la estación meteorológica de Fuente Palmera, Córdoba (120 m.)

Fecha
DESCASC
Temp. máxima en grados centígrados (hora)
DESCASC
Temp. mínima en grados centígrados (hora)
DESCASC
Temp. media en grados centígrados
DESCASC
Racha de viento máxima en m/sg (hora)
DESCASC
Velocidad máxima media en intervalos de 10 minutos(hora)
DESCASC
Precipitaciones diarias en mm
DESCASC
Precipitaciones de 00:00 a 06:00 en mm
DESCASC
Precipitaciones de 06:00 a 12:00 en mm
DESCASC
Precipitaciones de 12:00 a 18:00 en mm
DESCASC
Precipitaciones de 18:00 a 24:00 en mm
DESCASC
21-08-2017 38.8 (17:40) 23.6 (08:00) 31.2 8.61 (01:00) 5.56 (00:50) 0 0 0 0 0
20-08-2017 39.7 (16:40) 22.3 (07:50) 31 8.89 (23:00) 4.72 (20:50) 0 0 0 0 0
19-08-2017 41.9 (18:50) 21.9 (07:50) 31.9 6.67 (21:50) 3.89 (21:50) 0 0 0 0 0
18-08-2017 40.9 (19:00) 21.5 (08:00) 31.2 5.83 (22:20) 4.17 (22:20) 0 0 0 0 0
17-08-2017 40.4 (16:50) 20.7 (00:00) 30.6 6.67 (17:00) 3.89 (19:30) 0 0 0 0 0
16-08-2017 39.7 (18:00) 19.8 (00:00) 29.8 7.78 (16:40) 5 (16:50) 0 0 0 0 0
15-08-2017 38.7 (18:50) 22.4 (00:00) 30.6 6.67 (16:00) 3.89 (19:20) 0 0 0 0 0
14-08-2017 37.3 (18:50) 21.6 (07:20) 29.4 9.17 (00:40) 5.28 (00:20) 0 0 0 0 0
13-08-2017 37.7 (17:40) 20.2 (00:00) 29 9.72 (20:50) 5.83 (21:40) 0 0 0 0 0
12-08-2017 36.9 (17:40) 19.8 (00:00) 28.4 8.61 (18:10) 5.28 (18:40) 0 0 0 0 0
11-08-2017 37.2 (19:20) 19.8 (00:00) 28.5 6.67 (17:20) 3.89 (23:30) 0 0 0 0 0
10-08-2017 35.2 (18:30) 16.4 (00:00) 25.8 9.44 (11:10) 6.39 (11:10) 0 0 0 0 0
09-08-2017 34.3 (17:50) 20.2 (00:00) 27.3 10.28 (20:30) 5 (21:10) 0 0 0 0 0
08-08-2017 36.8 (18:30) 20.9 (00:00) 28.8 8.89 (14:40) 5 (20:10) 0 0 0 0 0
07-08-2017 40 (17:50) 22.2 (00:00) 31.1 9.44 (19:30) 6.11 (18:40) 0 0 0 0 0
06-08-2017 42.2 (18:20) 23.1 (00:00) 32.7 7.22 (20:00) 4.44 (21:40) 0 0 0 0 0
05-08-2017 42.5 (17:20) 24.6 (00:00) 33.6 10.83 (20:00) 5.83 (19:30) 0 0 0 0 0
04-08-2017 43.2 (18:20) 23.2 (00:00) 33.2 7.22 (22:00) 4.72 (22:10) 0 0 0 0 0
03-08-2017 41.7 (18:30) 18.8 (00:00) 30.3 9.72 (15:20) 4.44 (00:50) 0 0 0 0 0
02-08-2017 38.8 (19:00) 17.7 (00:00) 28.3 6.67 (19:00) 3.61 (22:10) 0 0 0 0 0
01-08-2017 33.9 (19:20) 20.5 (00:00) 27.2 7.78 (14:00) 4.72 (15:10) 0 0 0 0 0
31-07-2017 36.3 (17:00) 19.7 (00:00) 28 10 (17:30) 5.83 (17:30) 0 0 0 0 0
30-07-2017 40.4 (18:10) 21.3 (00:00) 30.9 9.17 (18:30) 5.28 (21:10) 0 0 0 0 0
29-07-2017 41 (18:10) 20.1 (00:00) 30.6 8.33 (19:20) 5.28 (19:20) 0 0 0 0 0
28-07-2017 41.1 (17:50) 20.3 (00:00) 30.7 8.06 (18:30) 4.72 (18:40) 0 0 0 0 0
27-07-2017 39.7 (17:30) 20.4 (00:00) 30.1 8.06 (17:40) 4.44 (21:50) 0 0 0 0 0
26-07-2017 36.1 (19:00) 19.4 (00:00) 27.7 5.83 (12:00) 3.89 (21:20) 0 0 0 0 0
25-07-2017 39.2 (18:00) 20.9 (00:00) 30.1 10.83 (20:00) 7.22 (20:00) 0 0 0 0 0
24-07-2017 39.6 (18:00) 18.7 (00:00) 29.1 8.89 (19:00) 5 (18:40) 0 0 0 0 0
23-07-2017 38 (18:50) 17.8 (00:00) 27.9 8.33 (21:50) 5.28 (21:50) 0 0 0 0 0

Gráficas

Temp. máximas Temp. mínimas Temp. medias Precipitaciones Rachas de viento máximas Velocidades máximas media en intervalos de 10 minutos

Datos horarios

Fecha y hora oficial Temperatura (ºC) Velocidad del viento (km/h) Dirección del viento Racha (km/h) Dirección de racha Precipitación (mm) Presión (hPa) Tendencia (hPa) Humedad (%)
2017-08-21 23:00:00 29.3 17 Sur 28 Sur 0 -- -- 37
2017-08-21 22:00:00 31.5 16 Sur 26 Sudoeste 0 -- -- 30
2017-08-21 21:00:00 34.1 13 Sur 22 Sur 0 -- -- 28
2017-08-21 20:00:00 37.1 12 Sur 23 Sur 0 -- -- 24
2017-08-21 19:00:00 38.4 13 Sur 22 Sur 0 -- -- 23
2017-08-21 18:00:00 38.6 9 Sudeste 27 Este 0 -- -- 22
2017-08-21 17:00:00 38.5 9 Sudeste 24 Sudeste 0 -- -- 21
2017-08-21 16:00:00 37.8 8 Sudoeste 23 Sur 0 -- -- 20
2017-08-21 15:00:00 36.5 12 Oeste 20 Oeste 0 -- -- 28
2017-08-21 14:00:00 35.3 6 Sur 23 Sur 0 -- -- 31
2017-08-21 13:00:00 33.8 13 Sudeste 26 Sur 0 -- -- 34
2017-08-21 12:00:00 32.3 14 Sudeste 24 Sudeste 0 -- -- 39
2017-08-21 11:00:00 30.3 17 Sur 25 Sudeste 0 -- -- 47
2017-08-21 10:00:00 28.2 6 Sudeste 12 Sudeste 0 -- -- 57
2017-08-21 09:00:00 25.5 4 Nordeste 10 Este 0 -- -- 65
2017-08-21 08:00:00 23.6 4 Este 9 Nordeste 0 -- -- 71
2017-08-21 07:00:00 24.4 7 Sudeste 19 Sudeste 0 -- -- 68
2017-08-21 06:00:00 25.4 13 Sur 23 Sur 0 -- -- 65
2017-08-21 05:00:00 25.7 15 Sur 26 Sudoeste 0 -- -- 63
2017-08-21 04:00:00 25.9 13 Sur 20 Sur 0 -- -- 62
2017-08-21 03:00:00 26.5 10 Sur 24 Sur 0 -- -- 59
2017-08-21 02:00:00 27.3 15 Sur 30 Sur 0 -- -- 56
2017-08-21 01:00:00 27.9 20 Sur 31 Sur 0 -- -- 53
2017-08-21 00:00:00 28.5 5 Sur 27 Sur 0 -- -- 51
2017-08-20 23:00:00 29.8 17 Sur 32 Sur 0 -- -- 45
2017-08-20 22:00:00 31.3 15 Sur 24 Sur 0 -- -- 40
2017-08-20 21:00:00 33.9 14 Sur 24 Sur 0 -- -- 32
2017-08-20 20:00:00 37.2 13 Sur 21 Sur 0 -- -- 27
2017-08-20 19:00:00 38.8 12 Sur 24 Sur 0 -- -- 23
2017-08-20 18:00:00 39.5 15 Sur 29 Sur 0 -- -- 20
2017-08-20 17:00:00 39.5 13 Sur 27 Sur 0 -- -- 22
2017-08-20 16:00:00 39.3 13 Sur 31 Sur 0 -- -- 21
2017-08-20 15:00:00 38 12 Sur 23 Sur 0 -- -- 24
2017-08-20 14:00:00 36.2 9 Este 19 Sudeste 0 -- -- 31
2017-08-20 13:00:00 34.4 10 Sudeste 21 Sudeste 0 -- -- 34
2017-08-20 12:00:00 33.1 10 Este 24 Sudeste 0 -- -- 36
2017-08-20 11:00:00 30.5 11 Este 19 Este 0 -- -- 46
2017-08-20 10:00:00 27.6 9 Nordeste 15 Nordeste 0 -- -- 54
2017-08-20 09:00:00 24.9 4 Este 9 Este 0 -- -- 59
2017-08-20 08:00:00 22.4 6 Este 9 Este 0 -- -- 66
2017-08-20 07:00:00 23 3 Este 6 Este 0 -- -- 63
2017-08-20 06:00:00 23.3 4 Este 7 Sur 0 -- -- 61
2017-08-20 05:00:00 24.4 0 Calma 7 Oeste 0 -- -- 54
2017-08-20 04:00:00 25.4 3 Oeste 13 Sur 0 -- -- 51
2017-08-20 03:00:00 26.9 9 Sur 16 Sudoeste 0 -- -- 48
2017-08-20 02:00:00 27.9 9 Sur 17 Sudoeste 0 -- -- 47
2017-08-20 01:00:00 28.9 10 Sudoeste 17 Sudoeste 0 -- -- 45
2017-08-20 00:00:00 30 9 Sudoeste 23 Sudoeste 0 -- -- 43
2017-08-19 23:00:00 31.6 9 Sudoeste 20 Sudoeste 0 -- -- 39
2017-08-19 22:00:00 33.8 12 Oeste 24 Oeste 0 -- -- 33
2017-08-19 21:00:00 36.5 12 Oeste 16 Oeste 0 -- -- 23
2017-08-19 20:00:00 40.1 6 Oeste 18 Oeste 0 -- -- 20
2017-08-19 19:00:00 41.7 10 Oeste 17 Oeste 0 -- -- 16
2017-08-19 18:00:00 41.4 8 Noroeste 20 Oeste 0 -- -- 16
2017-08-19 17:00:00 41 7 Sudoeste 20 Oeste 0 -- -- 18
2017-08-19 16:00:00 39.9 11 Oeste 19 Oeste 0 -- -- 20
2017-08-19 15:00:00 38.4 8 Oeste 17 Sudoeste 0 -- -- 23
2017-08-19 14:00:00 36.4 6 Noroeste 13 Noroeste 0 -- -- 26
2017-08-19 13:00:00 34.1 5 Sudeste 12 Este 0 -- -- 30
2017-08-19 12:00:00 31.5 4 Este 9 Sudeste 0 -- -- 34
2017-08-19 11:00:00 27.3 4 Nordeste 10 Nordeste 0 -- -- 43
2017-08-19 10:00:00 25.6 7 Norte 11 Nordeste 0 -- -- 49
2017-08-19 09:00:00 22.6 5 Este 8 Este 0 -- -- 59
2017-08-19 08:00:00 21.9 0 Calma 3 Sur 0 -- -- 61
2017-08-19 07:00:00 22.4 2 Este 4 Nordeste 0 -- -- 58
2017-08-19 06:00:00 23.3 2 Sudeste 9 Sudoeste 0 -- -- 55
2017-08-19 05:00:00 24.2 5 Oeste 9 Sudoeste 0 -- -- 52
2017-08-19 04:00:00 24.8 2 Noroeste 6 Sudoeste 0 -- -- 52
2017-08-19 03:00:00 25.9 5 Sudoeste 12 Sudoeste 0 -- -- 49
2017-08-19 02:00:00 27.2 5 Oeste 14 Sudoeste 0 -- -- 47
2017-08-19 01:00:00 29.1 9 Sudoeste 14 Sudoeste 0 -- -- 42
2017-08-19 00:00:00 30.5 11 Sudoeste 21 Sudoeste 0 -- -- 38
2017-08-18 23:00:00 32.3 8 Oeste 21 Oeste 0 -- -- 35
2017-08-18 22:00:00 33.8 10 Oeste 18 Sudoeste 0 -- -- 26
2017-08-18 21:00:00 36.2 10 Oeste 14 Oeste 0 -- -- 24
2017-08-18 20:00:00 40 5 Oeste 12 Oeste 0 -- -- 17
2017-08-18 19:00:00 40.9 5 Oeste 19 Oeste 0 -- -- 16
2017-08-18 18:00:00 40.4 8 Noroeste 19 Noroeste 0 -- -- 19
2017-08-18 17:00:00 39.9 6 Oeste 17 Oeste 0 -- -- 21
2017-08-18 16:00:00 39.4 9 Oeste 18 Oeste 0 -- -- 23
2017-08-18 15:00:00 37.4 8 Oeste 17 Sudoeste 0 -- -- 28
2017-08-18 14:00:00 36.2 6 Oeste 16 Sudoeste 0 -- -- 30
2017-08-18 13:00:00 34 6 Sur 13 Este 0 -- -- 35
2017-08-18 12:00:00 31.6 7 Este 12 Este 0 -- -- 43
2017-08-18 11:00:00 28.6 4 Norte 9 Nordeste 0 -- -- 51
2017-08-18 10:00:00 25.8 4 Norte 6 Nordeste 0 -- -- 57
2017-08-18 09:00:00 23.5 2 Nordeste 5 Este 0 -- -- 63
2017-08-18 08:00:00 21.5 3 Este 5 Sur 0 -- -- 74
2017-08-18 07:00:00 22.3 3 Sur 5 Sur 0 -- -- 74
2017-08-18 06:00:00 22.7 3 Sudeste 4 Sudeste 0 -- -- 70
2017-08-18 05:00:00 23.5 0 Calma 6 Noroeste 0 -- -- 65
2017-08-18 04:00:00 24.6 4 Noroeste 11 Oeste 0 -- -- 61
2017-08-18 03:00:00 25.8 5 Oeste 9 Oeste 0 -- -- 56
2017-08-18 02:00:00 27.4 5 Sudoeste 17 Sudoeste 0 -- -- 49
2017-08-18 01:00:00 28.5 10 Sudoeste 15 Sur 0 -- -- 41
2017-08-18 00:00:00 29.5 9 Sudoeste 15 Sudoeste 0 -- -- 32
2017-08-17 23:00:00 30.6 5 Oeste 16 Oeste 0 -- -- 25
2017-08-17 22:00:00 32.9 11 Oeste 15 Oeste 0 -- -- 20
2017-08-17 21:00:00 35.5 10 Oeste 19 Oeste 0 -- -- 18
2017-08-17 20:00:00 38.6 13 Oeste 24 Oeste 0 -- -- 15
2017-08-17 19:00:00 40 14 Oeste 23 Sudoeste 0 -- -- 16
2017-08-17 18:00:00 40.2 10 Sudoeste 23 Oeste 0 -- -- 14
2017-08-17 17:00:00 40.1 13 Oeste 24 Oeste 0 -- -- 13
2017-08-17 16:00:00 39.8 8 Oeste 21 Oeste 0 -- -- 14
2017-08-17 15:00:00 38.7 7 Sudoeste 17 Oeste 0 -- -- 17
2017-08-17 14:00:00 36.9 6 Nordeste 20 Norte 0 -- -- 18
2017-08-17 13:00:00 35.2 5 Nordeste 13 Este 0 -- -- 20
2017-08-17 12:00:00 32.1 8 Este 15 Este 0 -- -- 24
2017-08-17 11:00:00 29.5 8 Nordeste 12 Nordeste 0 -- -- 27
2017-08-17 10:00:00 26 6 Este 12 Este 0 -- -- 31
2017-08-17 09:00:00 22.8 5 Este 9 Este 0 -- -- 40
2017-08-17 08:00:00 20.9 4 Este 9 Este 0 -- -- 43
2017-08-17 07:00:00 21 5 Sudeste 9 Este 0 -- -- 45
2017-08-17 06:00:00 21.2 5 Sudeste 9 Sudeste 0 -- -- 42
2017-08-17 05:00:00 21 4 Este 8 Este 0 -- -- 45
2017-08-17 04:00:00 22.1 3 Sur 8 Sur 0 -- -- 43
2017-08-17 03:00:00 23.3 5 Sudeste 9 Sudeste 0 -- -- 42
2017-08-17 02:00:00 25.2 4 Oeste 10 Oeste 0 -- -- 37
2017-08-17 01:00:00 27.1 6 Sudoeste 12 Sudoeste 0 -- -- 31
2017-08-17 00:00:00 29.1 5 Sudoeste 10 Sur 0 -- -- 27
2017-08-16 23:00:00 30.2 4 Noroeste 17 Oeste 0 -- -- 25
2017-08-16 22:00:00 32.3 12 Oeste 17 Oeste 0 -- -- 20
2017-08-16 21:00:00 35.4 9 Oeste 18 Oeste 0 -- -- 18
2017-08-16 20:00:00 38.7 10 Sudoeste 24 Sudoeste 0 -- -- 11
2017-08-16 19:00:00 39.5 14 Sudoeste 25 Sudoeste 0 -- -- 10
2017-08-16 18:00:00 39.7 13 Sudoeste 26 Sudoeste 0 -- -- 10
2017-08-16 17:00:00 39 14 Sudoeste 28 Sudoeste 0 -- -- 10
2017-08-16 16:00:00 37.7 16 Oeste 25 Oeste 0 -- -- 16
2017-08-16 15:00:00 36.9 7 Oeste 19 Oeste 0 -- -- 18
2017-08-16 14:00:00 35.3 7 Sudoeste 16 Sur 0 -- -- 19
2017-08-16 13:00:00 34 4 Sur 12 Sur 0 -- -- 20
2017-08-16 12:00:00 31.7 3 Este 9 Este 0 -- -- 25
2017-08-16 11:00:00 28.7 3 Este 9 Nordeste 0 -- -- 33
2017-08-16 10:00:00 25.6 6 Nordeste 9 Nordeste 0 -- -- 39
2017-08-16 09:00:00 22.7 4 Sudeste 8 Sur 0 -- -- 59
2017-08-16 08:00:00 19.8 0 Calma 8 Sur 0 -- -- 68
2017-08-16 07:00:00 20.3 3 Sur 5 Sur 0 -- -- 66
2017-08-16 06:00:00 21.2 0 Calma 3 Este 0 -- -- 60
2017-08-16 05:00:00 21.8 0 Calma 10 Oeste 0 -- -- 56
2017-08-16 04:00:00 22.8 4 Oeste 19 Sudoeste 0 -- -- 52
2017-08-16 03:00:00 24.2 15 Sudoeste 22 Sudoeste 0 -- -- 50
2017-08-16 02:00:00 25.2 12 Sudoeste 20 Sudoeste 0 -- -- 47
2017-08-16 01:00:00 26.2 5 Oeste 12 Oeste 0 -- -- 42
2017-08-16 00:00:00 28.6 7 Sudoeste 21 Sudoeste 0 -- -- 38
2017-08-15 23:00:00 30.6 10 Sudoeste 22 Sudoeste 0 -- -- 36
2017-08-15 22:00:00 32.7 9 Sudoeste 23 Sudoeste 0 -- -- 36
2017-08-15 21:00:00 35 8 Oeste 18 Oeste 0 -- -- 30
2017-08-15 20:00:00 37.3 12 Oeste 24 Oeste 0 -- -- 27
2017-08-15 19:00:00 38.7 10 Oeste 20 Oeste 0 -- -- 22
2017-08-15 18:00:00 38.1 8 Sur 19 Oeste 0 -- -- 24
2017-08-15 17:00:00 37.7 4 Sudoeste 18 Oeste 0 -- -- 25
2017-08-15 16:00:00 36.4 11 Sudoeste 24 Sudoeste 0 -- -- 28
2017-08-15 15:00:00 35.2 8 Noroeste 17 Sudoeste 0 -- -- 33
2017-08-15 14:00:00 32.9 6 Sudoeste 16 Oeste 0 -- -- 38
2017-08-15 13:00:00 31.5 7 Noroeste 14 Noroeste 0 -- -- 41
2017-08-15 12:00:00 29.8 8 Sudoeste 15 Noroeste 0 -- -- 46
2017-08-15 11:00:00 27.8 7 Oeste 14 Oeste 0 -- -- 51
2017-08-15 10:00:00 26.5 4 Sur 8 Sur 0 -- -- 62
2017-08-15 09:00:00 24.3 3 Sur 5 Sur 0 -- -- 71
2017-08-15 08:00:00 22.4 2 Sudoeste 5 Sur 0 -- -- 77
2017-08-15 07:00:00 22.7 0 Calma 7 Oeste 0 -- -- 74
2017-08-15 06:00:00 23.4 5 Oeste 10 Sudoeste 0 -- -- 72
2017-08-15 05:00:00 24.1 6 Sur 10 Sudoeste 0 -- -- 68
2017-08-15 04:00:00 24.9 7 Sudoeste 12 Sudoeste 0 -- -- 65
2017-08-15 03:00:00 25.9 6 Sudoeste 18 Sudoeste 0 -- -- 60
2017-08-15 02:00:00 27.1 9 Sudoeste 20 Sudoeste 0 -- -- 53
2017-08-15 01:00:00 28.2 8 Sudoeste 22 Sudoeste 0 -- -- 50
2017-08-15 00:00:00 29.5 11 Sudoeste 23 Sudoeste 0 -- -- 42
2017-08-14 23:00:00 29.8 16 Sur 28 Sur 0 -- -- 39
2017-08-14 22:00:00 32 11 Sur 19 Sur 0 -- -- 33
2017-08-14 21:00:00 34.1 11 Sur 15 Sur 0 -- -- 29
2017-08-14 20:00:00 36.6 7 Sudoeste 22 Sur 0 -- -- 24
2017-08-14 19:00:00 37 9 Sur 17 Sur 0 -- -- 23
2017-08-14 18:00:00 36.8 10 Sudoeste 26 Sur 0 -- -- 23
2017-08-14 17:00:00 36.1 8 Sur 22 Sur 0 -- -- 25
2017-08-14 16:00:00 35.3 6 Sudoeste 17 Sudoeste 0 -- -- 28
2017-08-14 15:00:00 34.1 7 Sur 20 Sur 0 -- -- 32
2017-08-14 14:00:00 33.1 9 Sur 24 Sur 0 -- -- 33
2017-08-14 13:00:00 31.4 10 Sudeste 21 Sudeste 0 -- -- 39
2017-08-14 12:00:00 30 6 Sudeste 20 Sur 0 -- -- 45
2017-08-14 11:00:00 28.2 6 Este 15 Este 0 -- -- 50
2017-08-14 10:00:00 26.1 6 Este 10 Nordeste 0 -- -- 56
2017-08-14 09:00:00 23.5 4 Nordeste 8 Norte 0 -- -- 63
2017-08-14 08:00:00 21.8 2 Este 8 Este 0 -- -- 70
2017-08-14 07:00:00 21.8 4 Nordeste 9 Nordeste 0 -- -- 67
2017-08-14 06:00:00 22.4 3 Este 8 Este 0 -- -- 62
2017-08-14 05:00:00 23.7 3 Nordeste 10 Sudoeste 0 -- -- 57
2017-08-14 04:00:00 24.9 10 Sudoeste 24 Sur 0 -- -- 57
2017-08-14 03:00:00 24.9 15 Sur 24 Sur 0 -- -- 53
2017-08-14 02:00:00 25.6 10 Sur 18 Sur 0 -- -- 46
2017-08-14 01:00:00 26.5 14 Sur 33 Sur 0 -- -- 44
2017-08-14 00:00:00 26.8 19 Sur 35 Sur 0 -- -- 45
2017-08-13 23:00:00 27.5 19 Sur 31 Sur 0 -- -- 44
2017-08-13 22:00:00 29 19 Sur 32 Sur 0 -- -- 41
2017-08-13 21:00:00 31.6 18 Sur 35 Sur 0 -- -- 30
2017-08-13 20:00:00 35.1 13 Sudoeste 29 Sur 0 -- -- 22
2017-08-13 19:00:00 36.4 14 Sudoeste 27 Sudoeste 0 -- -- 21
2017-08-13 18:00:00 37.7 8 Sudoeste 16 Sur 0 -- -- 21
2017-08-13 17:00:00 37 8 Sur 21 Sur 0 -- -- 19
2017-08-13 16:00:00 36.2 5 Sur 19 Sur 0 -- -- 23
2017-08-13 15:00:00 35.2 9 Sur 21 Sur 0 -- -- 25
2017-08-13 14:00:00 33.7 8 Sudeste 19 Este 0 -- -- 28
2017-08-13 13:00:00 32.2 9 Sudeste 18 Este 0 -- -- 32
2017-08-13 12:00:00 30.7 11 Este 19 Sudeste 0 -- -- 35
2017-08-13 11:00:00 28.7 12 Sudeste 19 Sudeste 0 -- -- 40
2017-08-13 10:00:00 25.7 8 Nordeste 14 Este 0 -- -- 50
2017-08-13 09:00:00 23 5 Este 8 Este 0 -- -- 52
2017-08-13 08:00:00 20.4 5 Este 10 Nordeste 0 -- -- 58
2017-08-13 07:00:00 20.5 5 Nordeste 10 Nordeste 0 -- -- 57
2017-08-13 06:00:00 21.7 0 Calma 7 Noroeste 0 -- -- 55
2017-08-13 05:00:00 22.9 2 Oeste 15 Sur 0 -- -- 53
2017-08-13 04:00:00 23.4 10 Sur 17 Sur 0 -- -- 50
2017-08-13 03:00:00 23.8 9 Sur 13 Sur 0 -- -- 38
2017-08-13 02:00:00 24.7 2 Noroeste 7 Noroeste 0 -- -- 40
2017-08-13 01:00:00 25.6 6 Sur 16 Sur 0 -- -- 40
2017-08-13 00:00:00 26.1 6 Sur 10 Sur 0 -- -- 40
2017-08-12 23:00:00 27.3 3 Oeste 26 Sur 0 -- -- 36
2017-08-12 22:00:00 28.9 17 Sur 28 Sur 0 -- -- 33
2017-08-12 21:00:00 31.8 17 Sur 31 Sur 0 -- -- 26
2017-08-12 20:00:00 34.5 16 Sur 30 Sur 0 -- -- 21
2017-08-12 19:00:00 35.7 16 Sur 31 Sur 0 -- -- 19
2017-08-12 18:00:00 36.8 7 Sur 22 Sur 0 -- -- 19
2017-08-12 17:00:00 36.5 11 Sur 18 Sudoeste 0 -- -- 23
2017-08-12 16:00:00 36.1 9 Sudoeste 17 Norte 0 -- -- 24
2017-08-12 15:00:00 34.8 5 Nordeste 14 Nordeste 0 -- -- 27
2017-08-12 14:00:00 33.6 6 Sur 17 Sudoeste 0 -- -- 29
2017-08-12 13:00:00 32.3 9 Este 18 Sudeste 0 -- -- 34
2017-08-12 12:00:00 30.3 6 Este 19 Este 0 -- -- 40
2017-08-12 11:00:00 28.9 6 Este 14 Sudeste 0 -- -- 45
2017-08-12 10:00:00 25.6 8 Nordeste 12 Nordeste 0 -- -- 48
2017-08-12 09:00:00 22.8 4 Nordeste 9 Nordeste 0 -- -- 53
2017-08-12 08:00:00 20 5 Este 7 Este 0 -- -- 58
2017-08-12 07:00:00 20.3 4 Este 8 Este 0 -- -- 56
2017-08-12 06:00:00 21.2 3 Nordeste 6 Este 0 -- -- 52
2017-08-12 05:00:00 22.2 4 Nordeste 6 Este 0 -- -- 47
2017-08-12 04:00:00 23.6 5 Sur 13 Sur 0 -- -- 43
2017-08-12 03:00:00 24.6 11 Sur 23 Sur 0 -- -- 43
2017-08-12 02:00:00 24.7 11 Sudeste 19 Sudeste 0 -- -- 44
2017-08-12 01:00:00 26.1 4 Sudeste 12 Sudoeste 0 -- -- 41
2017-08-12 00:00:00 27.4 7 Noroeste 22 Sur 0 -- -- 39
2017-08-11 23:00:00 29.1 11 Sur 19 Sudoeste 0 -- -- 37
2017-08-11 22:00:00 31.5 8 Sudoeste 17 Sur 0 -- -- 31
2017-08-11 21:00:00 35.4 2 Sudoeste 10 Sur 0 -- -- 21
2017-08-11 20:00:00 36.3 5 Sur 13 Oeste 0 -- -- 18
2017-08-11 19:00:00 37 4 Sudoeste 14 Sur 0 -- -- 18
2017-08-11 18:00:00 36.1 5 Noroeste 24 Sur 0 -- -- 19
2017-08-11 17:00:00 35.8 9 Sur 19 Sudeste 0 -- -- 19
2017-08-11 16:00:00 34.7 6 Nordeste 21 Nordeste 0 -- -- 24
2017-08-11 15:00:00 33.9 8 Nordeste 20 Este 0 -- -- 25
2017-08-11 14:00:00 32.4 6 Sur 17 Este 0 -- -- 34
2017-08-11 13:00:00 30.8 6 Nordeste 17 Este 0 -- -- 36
2017-08-11 12:00:00 29.3 12 Este 18 Nordeste 0 -- -- 43
2017-08-11 11:00:00 28 8 Este 17 Este 0 -- -- 51
2017-08-11 10:00:00 25.3 9 Este 17 Este 0 -- -- 60
2017-08-11 09:00:00 22.5 8 Nordeste 13 Este 0 -- -- 63
2017-08-11 08:00:00 20.2 4 Este 8 Este 0 -- -- 70
2017-08-11 07:00:00 20.1 5 Este 11 Nordeste 0 -- -- 72
2017-08-11 06:00:00 21.1 4 Nordeste 7 Nordeste 0 -- -- 72
2017-08-11 05:00:00 22.2 2 Este 5 Sudeste 0 -- -- 71
2017-08-11 04:00:00 22.9 3 Nordeste 15 Sur 0 -- -- 68
2017-08-11 03:00:00 23.7 10 Sur 18 Sur 0 -- -- 65
2017-08-11 02:00:00 24.4 12 Sur 22 Sudeste 0 -- -- 61
2017-08-11 01:00:00 25 9 Sudeste 20 Sudoeste 0 -- -- 57
2017-08-11 00:00:00 26.6 6 Sur 12 Sudeste 0 -- -- 52
2017-08-10 23:00:00 28.2 2 Este 18 Sur 0 -- -- 46
2017-08-10 22:00:00 29.9 14 Sur 23 Sur 0 -- -- 42
2017-08-10 21:00:00 34.2 4 Sur 8 Sur 0 -- -- 20
2017-08-10 20:00:00 35.1 6 Sur 16 Sur 0 -- -- 18
2017-08-10 19:00:00 35 6 Sudeste 20 Este 0 -- -- 18
2017-08-10 18:00:00 34.9 8 Sur 19 Este 0 -- -- 18
2017-08-10 17:00:00 34.3 6 Sur 21 Este 0 -- -- 20
2017-08-10 16:00:00 33.7 6 Noroeste 23 Nordeste 0 -- -- 22
2017-08-10 15:00:00 32.6 7 Sur 27 Nordeste 0 -- -- 26
2017-08-10 14:00:00 31.5 14 Este 29 Nordeste 0 -- -- 31
2017-08-10 13:00:00 30 19 Este 33 Este 0 -- -- 34
2017-08-10 12:00:00 28.7 18 Este 34 Este 0 -- -- 36
2017-08-10 11:00:00 26.7 18 Este 30 Este 0 -- -- 38
2017-08-10 10:00:00 24.2 13 Este 21 Nordeste 0 -- -- 42
2017-08-10 09:00:00 20.7 3 Nordeste 6 Este 0 -- -- 57
2017-08-10 08:00:00 17 3 Este 6 Nordeste 0 -- -- 68
2017-08-10 07:00:00 16.9 2 Sudeste 5 Sudeste 0 -- -- 71
2017-08-10 06:00:00 17.8 4 Sudeste 6 Sudeste 0 -- -- 68
2017-08-10 05:00:00 18.2 2 Oeste 12 Este 0 -- -- 65
2017-08-10 04:00:00 19.2 0 Calma 9 Este 0 -- -- 61
2017-08-10 03:00:00 20.1 5 Oeste 12 Sudoeste 0 -- -- 57
2017-08-10 02:00:00 21.4 5 Sudoeste 16 Sudoeste 0 -- -- 53
2017-08-10 01:00:00 22.4 8 Sudoeste 19 Sudoeste 0 -- -- 48
2017-08-10 00:00:00 23.9 8 Sudoeste 25 Sudoeste 0 -- -- 46
2017-08-09 23:00:00 25.8 12 Oeste 28 Oeste 0 -- -- 41
2017-08-09 22:00:00 27.7 10 Sudoeste 32 Sudoeste 0 -- -- 34
2017-08-09 21:00:00 30.3 17 Sudoeste 37 Sudoeste 0 -- -- 31
2017-08-09 20:00:00 33.4 13 Oeste 28 Oeste 0 -- -- 19
2017-08-09 19:00:00 34.1 15 Sudoeste 27 Sudoeste 0 -- -- 15
2017-08-09 18:00:00 34.2 13 Sudoeste 28 Oeste 0 -- -- 15
2017-08-09 17:00:00 34 12 Sudoeste 26 Oeste 0 -- -- 16
2017-08-09 16:00:00 33.2 12 Oeste 23 Sur 0 -- -- 18
2017-08-09 15:00:00 31.9 12 Oeste 27 Oeste 0 -- -- 21
2017-08-09 14:00:00 30.7 14 Oeste 27 Oeste 0 -- -- 25
2017-08-09 13:00:00 29.4 11 Oeste 22 Oeste 0 -- -- 26
2017-08-09 12:00:00 27.2 9 Sudoeste 17 Sudoeste 0 -- -- 31
2017-08-09 11:00:00 25.4 5 Sudoeste 12 Oeste 0 -- -- 36
2017-08-09 10:00:00 23.6 4 Noroeste 13 Noroeste 0 -- -- 40
2017-08-09 09:00:00 21.5 6 Noroeste 13 Noroeste 0 -- -- 45
2017-08-09 08:00:00 20.3 7 Noroeste 21 Norte 0 -- -- 47
2017-08-09 07:00:00 20.9 12 Noroeste 20 Noroeste 0 -- -- 44
2017-08-09 06:00:00 21.3 9 Noroeste 15 Noroeste 0 -- -- 39
2017-08-09 05:00:00 22.7 5 Noroeste 16 Noroeste 0 -- -- 31
2017-08-09 04:00:00 23.3 6 Noroeste 16 Noroeste 0 -- -- 28
2017-08-09 03:00:00 23.4 8 Noroeste 15 Oeste 0 -- -- 22
2017-08-09 02:00:00 24 7 Sudoeste 11 Sudoeste 0 -- -- 21
2017-08-09 01:00:00 25.6 5 Noroeste 9 Oeste 0 -- -- 18
2017-08-09 00:00:00 27.2 3 Oeste 14 Norte 0 -- -- 15
2017-08-08 23:00:00 28.7 6 Noroeste 21 Norte 0 -- -- 13
2017-08-08 22:00:00 30.1 9 Noroeste 20 Noroeste 0 -- -- 12
2017-08-08 21:00:00 32.8 14 Noroeste 27 Norte 0 -- -- 12
2017-08-08 20:00:00 34.9 14 Norte 24 Noroeste 0 -- -- 12
2017-08-08 19:00:00 36.5 12 Noroeste 24 Noroeste 0 -- -- 9
2017-08-08 18:00:00 36.5 10 Noroeste 28 Oeste 0 -- -- 9
2017-08-08 17:00:00 36.2 7 Noroeste 27 Oeste 0 -- -- 14
2017-08-08 16:00:00 35.4 11 Norte 30 Oeste 0 -- -- 12
2017-08-08 15:00:00 34 14 Oeste 32 Oeste 0 -- -- 16
2017-08-08 14:00:00 32.7 9 Noroeste 24 Noroeste 0 -- -- 19
2017-08-08 13:00:00 31.2 12 Noroeste 24 Oeste 0 -- -- 22
2017-08-08 12:00:00 28.5 8 Oeste 14 Oeste 0 -- -- 30
2017-08-08 11:00:00 26 8 Noroeste 21 Noroeste 0 -- -- 35
2017-08-08 10:00:00 23.4 13 Noroeste 22 Noroeste 0 -- -- 40
2017-08-08 09:00:00 21.5 17 Noroeste 25 Noroeste 0 -- -- 46
2017-08-08 08:00:00 21.1 11 Noroeste 24 Noroeste 0 -- -- 44
2017-08-08 07:00:00 22.2 9 Noroeste 19 Noroeste 0 -- -- 38
2017-08-08 06:00:00 23.5 11 Oeste 21 Norte 0 -- -- 30
2017-08-08 05:00:00 24.6 12 Norte 22 Norte 0 -- -- 25
2017-08-08 04:00:00 24.5 0 Calma 7 Oeste 0 -- -- 33
2017-08-08 03:00:00 26 5 Noroeste 12 Noroeste 0 -- -- 28
2017-08-08 02:00:00 26.5 4 Oeste 15 Sudoeste 0 -- -- 30
2017-08-08 01:00:00 27.9 10 Sudoeste 25 Sudoeste 0 -- -- 27
2017-08-08 00:00:00 29.4 11 Sudoeste 19 Sudoeste 0 -- -- 24
2017-08-07 23:00:00 31.3 5 Sudoeste 19 Sur 0 -- -- 22
2017-08-07 22:00:00 34.1 9 Sudoeste 22 Sudoeste 0 -- -- 20
2017-08-07 21:00:00 36.6 12 Sudoeste 24 Sudoeste 0 -- -- 18
2017-08-07 20:00:00 38.8 13 Sudoeste 34 Sudoeste 0 -- -- 16
2017-08-07 19:00:00 39.4 17 Oeste 32 Oeste 0 -- -- 16
2017-08-07 18:00:00 40 17 Oeste 29 Sudoeste 0 -- -- 15
2017-08-07 17:00:00 39 14 Oeste 30 Oeste 0 -- -- 15
2017-08-07 16:00:00 38.5 19 Oeste 30 Oeste 0 -- -- 15
2017-08-07 15:00:00 37.3 13 Oeste 25 Oeste 0 -- -- 16
2017-08-07 14:00:00 35.4 7 Noroeste 20 Noroeste 0 -- -- 21
2017-08-07 13:00:00 34.4 6 Norte 17 Oeste 0 -- -- 22
2017-08-07 12:00:00 33.7 7 Noroeste 19 Noroeste 0 -- -- 22
2017-08-07 11:00:00 32 5 Nordeste 15 Sudeste 0 -- -- 22
2017-08-07 10:00:00 28.1 7 Sudeste 13 Sudeste 0 -- -- 31
2017-08-07 09:00:00 25.1 3 Sudeste 8 Sudeste 0 -- -- 37
2017-08-07 08:00:00 22.3 4 Sudeste 8 Sur 0 -- -- 44
2017-08-07 07:00:00 22.9 4 Este 16 Noroeste 0 -- -- 39
2017-08-07 06:00:00 23.7 6 Noroeste 12 Noroeste 0 -- -- 36
2017-08-07 05:00:00 25 4 Nordeste 20 Este 0 -- -- 32
2017-08-07 04:00:00 25.8 18 Sudeste 26 Sudeste 0 -- -- 31
2017-08-07 03:00:00 26 6 Oeste 14 Oeste 0 -- -- 30
2017-08-07 02:00:00 27 5 Sur 16 Oeste 0 -- -- 26
2017-08-07 01:00:00 27.9 9 Sudoeste 16 Sudoeste 0 -- -- 27
2017-08-07 00:00:00 29.7 9 Oeste 17 Oeste 0 -- -- 23
2017-08-06 23:00:00 31.6 9 Oeste 22 Oeste 0 -- -- 25
2017-08-06 22:00:00 34.5 14 Oeste 24 Oeste 0 -- -- 23
2017-08-06 21:00:00 37.7 7 Oeste 19 Oeste 0 -- -- 17
2017-08-06 20:00:00 40 14 Oeste 26 Oeste 0 -- -- 15
2017-08-06 19:00:00 41.5 13 Oeste 25 Oeste 0 -- -- 11
2017-08-06 18:00:00 41.8 12 Sudoeste 25 Oeste 0 -- -- 10
2017-08-06 17:00:00 41.3 12 Sudoeste 24 Oeste 0 -- -- 9
2017-08-06 16:00:00 40.4 10 Sudoeste 22 Oeste 0 -- -- 10
2017-08-06 15:00:00 38.9 9 Oeste 17 Oeste 0 -- -- 14
2017-08-06 14:00:00 37.4 6 Sudoeste 16 Oeste 0 -- -- 16
2017-08-06 13:00:00 35.8 5 Oeste 13 Sudoeste 0 -- -- 21
2017-08-06 12:00:00 34 5 Sudeste 10 Sudeste 0 -- -- 22
2017-08-06 11:00:00 31.2 5 Sudeste 9 Este 0 -- -- 29
2017-08-06 10:00:00 28 5 Norte 9 Norte 0 -- -- 33
2017-08-06 09:00:00 25.1 4 Noroeste 6 Noroeste 0 -- -- 40
2017-08-06 08:00:00 23.5 3 Sudoeste 6 Oeste 0 -- -- 47
2017-08-06 07:00:00 23.8 4 Oeste 13 Oeste 0 -- -- 43
2017-08-06 06:00:00 24.9 12 Oeste 18 Oeste 0 -- -- 40
2017-08-06 05:00:00 25.9 7 Sudoeste 12 Oeste 0 -- -- 41
2017-08-06 04:00:00 27.5 6 Oeste 15 Noroeste 0 -- -- 37
2017-08-06 03:00:00 26.3 5 Sudoeste 11 Sur 0 -- -- 47
2017-08-06 02:00:00 27.7 4 Sur 12 Oeste 0 -- -- 46
2017-08-06 01:00:00 29.6 6 Oeste 25 Sudoeste 0 -- -- 42
2017-08-06 00:00:00 31.2 12 Sudoeste 22 Sudoeste 0 -- -- 36
2017-08-05 23:00:00 32.7 6 Oeste 15 Sudoeste 0 -- -- 30
2017-08-05 22:00:00 35 9 Sudoeste 20 Sudoeste 0 -- -- 25
2017-08-05 21:00:00 38.3 13 Sudoeste 33 Sudoeste 0 -- -- 20
2017-08-05 20:00:00 40.9 19 Oeste 39 Oeste 0 -- -- 17
2017-08-05 19:00:00 41.9 19 Oeste 35 Oeste 0 -- -- 18
2017-08-05 18:00:00 42.3 20 Oeste 31 Oeste 0 -- -- 16
2017-08-05 17:00:00 42.2 16 Sudoeste 33 Oeste 0 -- -- 13
2017-08-05 16:00:00 41.5 17 Oeste 31 Oeste 0 -- -- 20
2017-08-05 15:00:00 40.5 13 Sudoeste 28 Oeste 0 -- -- 22
2017-08-05 14:00:00 39 14 Oeste 27 Oeste 0 -- -- 25
2017-08-05 13:00:00 37.8 13 Sudoeste 23 Sur 0 -- -- 25
2017-08-05 12:00:00 35.3 6 Sur 14 Sudoeste 0 -- -- 29
2017-08-05 11:00:00 33.5 4 Oeste 9 Oeste 0 -- -- 31
2017-08-05 10:00:00 30.5 4 Noroeste 10 Noroeste 0 -- -- 37
2017-08-05 09:00:00 28.2 2 Este 6 Este 0 -- -- 44
2017-08-05 08:00:00 25 4 Este 6 Este 0 -- -- 53
2017-08-05 07:00:00 25.2 4 Sudeste 7 Este 0 -- -- 51
2017-08-05 06:00:00 26.1 4 Este 6 Este 0 -- -- 48
2017-08-05 05:00:00 26.9 3 Norte 9 Sur 0 -- -- 44
2017-08-05 04:00:00 27.9 5 Sudoeste 9 Sudoeste 0 -- -- 41
2017-08-05 03:00:00 29 7 Sudoeste 17 Sudoeste 0 -- -- 39
2017-08-05 02:00:00 30.8 13 Sudoeste 19 Sudoeste 0 -- -- 36
2017-08-05 01:00:00 32 9 Sudoeste 15 Sudoeste 0 -- -- 34
2017-08-05 00:00:00 33.9 12 Oeste 19 Oeste 0 -- -- 31
2017-08-04 23:00:00 35.3 6 Oeste 26 Oeste 0 -- -- 30
2017-08-04 22:00:00 36.9 17 Oeste 26 Oeste 0 -- -- 26
2017-08-04 21:00:00 40.1 12 Oeste 18 Oeste 0 -- -- 23
2017-08-04 20:00:00 42.7 12 Oeste 22 Oeste 0 -- -- 19
2017-08-04 19:00:00 43.1 10 Sudoeste 18 Sudoeste 0 -- -- 17
2017-08-04 18:00:00 43.1 6 Sudoeste 18 Sur 0 -- -- 18
2017-08-04 17:00:00 42.4 8 Sur 17 Oeste 0 -- -- 18
2017-08-04 16:00:00 41.4 5 Nordeste 14 Nordeste 0 -- -- 19
2017-08-04 15:00:00 40.3 6 Sudeste 17 Este 0 -- -- 19
2017-08-04 14:00:00 39.4 6 Nordeste 17 Nordeste 0 -- -- 18
2017-08-04 13:00:00 37.7 5 Sudeste 13 Sudeste 0 -- -- 20
2017-08-04 12:00:00 35 4 Sudeste 10 Sudeste 0 -- -- 22
2017-08-04 11:00:00 32.2 5 Nordeste 12 Nordeste 0 -- -- 24
2017-08-04 10:00:00 29.4 8 Este 13 Este 0 -- -- 28
2017-08-04 09:00:00 26.4 5 Sudeste 9 Sudeste 0 -- -- 34
2017-08-04 08:00:00 23.7 4 Este 8 Este 0 -- -- 36
2017-08-04 07:00:00 23.3 6 Este 9 Este 0 -- -- 35
2017-08-04 06:00:00 24.7 3 Nordeste 7 Noroeste 0 -- -- 32
2017-08-04 05:00:00 26.9 2 Noroeste 25 Noroeste 0 -- -- 31
2017-08-04 04:00:00 29.3 12 Noroeste 22 Noroeste 0 -- -- 24
2017-08-04 03:00:00 27.7 6 Noroeste 11 Noroeste 0 -- -- 24
2017-08-04 02:00:00 28.2 5 Noroeste 9 Noroeste 0 -- -- 23
2017-08-04 01:00:00 29.1 2 Noroeste 7 Noroeste 0 -- -- 22
2017-08-04 00:00:00 30.1 2 Oeste 15 Oeste 0 -- -- 24
2017-08-03 23:00:00 32.4 11 Oeste 16 Oeste 0 -- -- 22
2017-08-03 22:00:00 34 8 Oeste 18 Oeste 0 -- -- 21
2017-08-03 21:00:00 37.5 13 Oeste 22 Oeste 0 -- -- 19
2017-08-03 20:00:00 40.3 14 Oeste 24 Oeste 0 -- -- 15
2017-08-03 19:00:00 41.1 14 Oeste 23 Oeste 0 -- -- 14
2017-08-03 18:00:00 41.5 9 Sudoeste 22 Oeste 0 -- -- 13
2017-08-03 17:00:00 40.5 6 Sur 19 Sudoeste 0 -- -- 13
2017-08-03 16:00:00 39.9 8 Sudoeste 35 Sudoeste 0 -- -- 14
2017-08-03 15:00:00 38.8 6 Este 14 Noroeste 0 -- -- 15
2017-08-03 14:00:00 36.9 8 Sudoeste 17 Sudoeste 0 -- -- 17
2017-08-03 13:00:00 35 3 Este 12 Este 0 -- -- 20
2017-08-03 12:00:00 32.1 6 Este 12 Nordeste 0 -- -- 25
2017-08-03 11:00:00 29.4 5 Este 11 Este 0 -- -- 29
2017-08-03 10:00:00 26.3 6 Este 9 Este 0 -- -- 35
2017-08-03 09:00:00 22.9 5 Sudeste 9 Este 0 -- -- 44
2017-08-03 08:00:00 20.2 4 Este 7 Este 0 -- -- 52
2017-08-03 07:00:00 18.8 2 Este 5 Oeste 0 -- -- 56
2017-08-03 06:00:00 20 2 Sudeste 5 Este 0 -- -- 50
2017-08-03 05:00:00 20.4 4 Este 9 Sur 0 -- -- 51
2017-08-03 04:00:00 22.1 0 Calma 9 Oeste 0 -- -- 45
2017-08-03 03:00:00 23.6 0 Calma 11 Sudoeste 0 -- -- 41
2017-08-03 02:00:00 25.4 5 Sudoeste 22 Sudoeste 0 -- -- 37
2017-08-03 01:00:00 27.4 14 Sudoeste 31 Oeste 0 -- -- 27
2017-08-03 00:00:00 28.4 7 Sudoeste 18 Oeste 0 -- -- 31
2017-08-02 23:00:00 30.1 10 Sudoeste 18 Sudoeste 0 -- -- 27
2017-08-02 22:00:00 32.1 11 Oeste 16 Oeste 0 -- -- 24
2017-08-02 21:00:00 35.6 10 Oeste 17 Oeste 0 -- -- 20
2017-08-02 20:00:00 38 8 Sudoeste 18 Oeste 0 -- -- 16
2017-08-02 19:00:00 38.8 10 Oeste 24 Oeste 0 -- -- 15
2017-08-02 18:00:00 38.4 9 Sudoeste 16 Sur 0 -- -- 14
2017-08-02 17:00:00 37.8 5 Sur 23 Sudeste 0 -- -- 14
2017-08-02 16:00:00 36.8 6 Sur 17 Oeste 0 -- -- 16
2017-08-02 15:00:00 35.6 9 Sudoeste 17 Sudoeste 0 -- -- 20
2017-08-02 14:00:00 33.9 8 Oeste 15 Sudoeste 0 -- -- 21
2017-08-02 13:00:00 31.7 4 Sudoeste 14 Norte 0 -- -- 25
2017-08-02 12:00:00 29.7 7 Nordeste 11 Norte 0 -- -- 29
2017-08-02 11:00:00 26.7 6 Este 11 Este 0 -- -- 38
2017-08-02 10:00:00 24.4 5 Nordeste 9 Nordeste 0 -- -- 46
2017-08-02 09:00:00 21.7 5 Este 9 Este 0 -- -- 50
2017-08-02 08:00:00 18.3 5 Nordeste 10 Sudeste 0 -- -- 64
2017-08-02 07:00:00 18.1 6 Sudeste 8 Este 0 -- -- 63
2017-08-02 06:00:00 18.4 3 Este 5 Este 0 -- -- 63
2017-08-02 05:00:00 19.1 0 Calma 5 Sudeste 0 -- -- 60
2017-08-02 04:00:00 20.2 0 Calma 5 Sur 0 -- -- 55
2017-08-02 03:00:00 21.4 5 Sur 8 Sur 0 -- -- 52
2017-08-02 02:00:00 22.8 0 Calma 17 Sudoeste 0 -- -- 44
2017-08-02 01:00:00 24.1 11 Sudoeste 18 Sudoeste 0 -- -- 39
2017-08-02 00:00:00 25.6 8 Sudoeste 17 Oeste 0 -- -- 40
2017-08-01 23:00:00 27.4 8 Sudoeste 27 Sudoeste 0 -- -- 33
2017-08-01 22:00:00 28.7 7 Sudoeste 16 Oeste 0 -- -- 28
2017-08-01 21:00:00 32.1 9 Oeste 18 Sudoeste 0 -- -- 21
2017-08-01 20:00:00 33.9 9 Sudoeste 23 Sudoeste 0 -- -- 19
2017-08-01 19:00:00 33.7 13 Sudoeste 24 Sudoeste 0 -- -- 21
2017-08-01 18:00:00 33.2 9 Sudoeste 23 Sudoeste 0 -- -- 20
2017-08-01 17:00:00 33.2 11 Oeste 22 Oeste 0 -- -- 22
2017-08-01 16:00:00 31.1 13 Sudoeste 26 Oeste 0 -- -- 28
2017-08-01 15:00:00 30.2 12 Oeste 22 Oeste 0 -- -- 31
2017-08-01 14:00:00 29.2 12 Oeste 28 Oeste 0 -- -- 34
2017-08-01 13:00:00 27.6 7 Oeste 23 Oeste 0 -- -- 40
2017-08-01 12:00:00 26.9 4 Oeste 18 Oeste 0 -- -- 39
2017-08-01 11:00:00 25.1 10 Oeste 21 Oeste 0 -- -- 45
2017-08-01 10:00:00 23.7 4 Oeste 13 Noroeste 0 -- -- 51
2017-08-01 09:00:00 22.9 3 Noroeste 5 Sudoeste 0 -- -- 56
2017-08-01 08:00:00 20.8 5 Sudoeste 10 Sudoeste 0 -- -- 62
2017-08-01 07:00:00 20.8 2 Noroeste 8 Oeste 0 -- -- 63
2017-08-01 06:00:00 21.2 3 Oeste 7 Oeste 0 -- -- 60
2017-08-01 05:00:00 21.8 3 Oeste 11 Sudoeste 0 -- -- 58
2017-08-01 04:00:00 22.4 7 Sudoeste 19 Sudoeste 0 -- -- 56
2017-08-01 03:00:00 23 11 Sudoeste 18 Sudoeste 0 -- -- 54
2017-08-01 02:00:00 23.4 8 Oeste 25 Sudoeste 0 -- -- 50
2017-08-01 01:00:00 23.9 15 Sudoeste 24 Oeste 0 -- -- 48
2017-08-01 00:00:00 24.9 12 Sudoeste 28 Sudoeste 0 -- -- 48
2017-07-31 23:00:00 27.3 14 Sudoeste 26 Sudoeste 0 -- -- 38
2017-07-31 22:00:00 30 8 Sudoeste 25 Oeste 0 -- -- 26
2017-07-31 21:00:00 32.4 18 Oeste 34 Oeste 0 -- -- 22
2017-07-31 20:00:00 34.9 18 Oeste 32 Oeste 0 -- -- 25
2017-07-31 19:00:00 35.8 19 Oeste 33 Oeste 0 -- -- 23
2017-07-31 18:00:00 36.3 18 Oeste 36 Oeste 0 -- -- 23
2017-07-31 17:00:00 36.3 18 Oeste 32 Oeste 0 -- -- 25
2017-07-31 16:00:00 35.7 18 Oeste 32 Oeste 0 -- -- 25
2017-07-31 15:00:00 35.2 14 Oeste 27 Oeste 0 -- -- 25
2017-07-31 14:00:00 33.8 11 Oeste 25 Sur 0 -- -- 24
2017-07-31 13:00:00 31.6 10 Oeste 19 Oeste 0 -- -- 26
2017-07-31 12:00:00 29.5 8 Oeste 15 Oeste 0 -- -- 31
2017-07-31 11:00:00 27.4 7 Oeste 14 Oeste 0 -- -- 43
2017-07-31 10:00:00 25.1 5 Sudoeste 9 Oeste 0 -- -- 38
2017-07-31 09:00:00 22.9 6 Sudoeste 10 Sudoeste 0 -- -- 54
2017-07-31 08:00:00 20.2 2 Sudoeste 9 Oeste 0 -- -- 64
2017-07-31 07:00:00 20 3 Sudoeste 6 Sudoeste 0 -- -- 67
2017-07-31 06:00:00 20.7 3 Noroeste 9 Oeste 0 -- -- 62
2017-07-31 05:00:00 21.7 3 Oeste 6 Oeste 0 -- -- 57
2017-07-31 04:00:00 23 2 Noroeste 12 Oeste 0 -- -- 52
2017-07-31 03:00:00 24.4 6 Sudoeste 12 Oeste 0 -- -- 49
2017-07-31 02:00:00 25.5 8 Oeste 16 Sudoeste 0 -- -- 44
2017-07-31 01:00:00 26.9 10 Sudoeste 22 Sudoeste 0 -- -- 41
2017-07-31 00:00:00 28.8 9 Sudoeste 23 Sudoeste 0 -- -- 39
2017-07-30 23:00:00 31.3 10 Oeste 24 Sudoeste 0 -- -- 35
2017-07-30 22:00:00 33.2 8 Sudoeste 30 Oeste 0 -- -- 38
2017-07-30 21:00:00 36.4 15 Oeste 24 Oeste 0 -- -- 25
2017-07-30 20:00:00 39.1 13 Oeste 29 Oeste 0 -- -- 17
2017-07-30 19:00:00 39.8 16 Oeste 33 Oeste 0 -- -- 19
2017-07-30 18:00:00 40.3 14 Oeste 30 Oeste 0 -- -- 19
2017-07-30 17:00:00 39.9 14 Oeste 30 Oeste 0 -- -- 19
2017-07-30 16:00:00 39.7 14 Oeste 31 Oeste 0 -- -- 20
2017-07-30 15:00:00 38.4 12 Sudoeste 27 Sudoeste 0 -- -- 21
2017-07-30 14:00:00 37 9 Sudoeste 19 Oeste 0 -- -- 24
2017-07-30 13:00:00 35.6 4 Sudoeste 13 Sudoeste 0 -- -- 26
2017-07-30 12:00:00 33.2 6 Sudeste 10 Sudeste 0 -- -- 30
2017-07-30 11:00:00 30.6 5 Nordeste 10 Nordeste 0 -- -- 35
2017-07-30 10:00:00 28 3 Nordeste 10 Este 0 -- -- 41
2017-07-30 09:00:00 24.7 5 Nordeste 8 Nordeste 0 -- -- 51
2017-07-30 08:00:00 21.6 5 Este 8 Este 0 -- -- 60
2017-07-30 07:00:00 21.3 3 Este 6 Este 0 -- -- 62
2017-07-30 06:00:00 22.4 0 Calma 8 Sur 0 -- -- 58
2017-07-30 05:00:00 23.5 5 Sudeste 7 Sudeste 0 -- -- 56
2017-07-30 04:00:00 24.7 0 Calma 6 Noroeste 0 -- -- 52
2017-07-30 03:00:00 25.9 3 Noroeste 9 Sur 0 -- -- 49
2017-07-30 02:00:00 27.4 6 Sur 21 Sudoeste 0 -- -- 45
2017-07-30 01:00:00 28.7 15 Sudoeste 23 Sur 0 -- -- 42
2017-07-30 00:00:00 29.9 11 Sudoeste 17 Sudoeste 0 -- -- 29
2017-07-29 23:00:00 31.4 9 Sudoeste 14 Oeste 0 -- -- 23
2017-07-29 22:00:00 33.9 10 Oeste 22 Oeste 0 -- -- 26
2017-07-29 21:00:00 36.9 15 Oeste 27 Oeste 0 -- -- 22
2017-07-29 20:00:00 39.5 17 Oeste 30 Oeste 0 -- -- 16
2017-07-29 19:00:00 40.6 17 Oeste 28 Oeste 0 -- -- 12
2017-07-29 18:00:00 40.9 14 Oeste 28 Oeste 0 -- -- 10
2017-07-29 17:00:00 40.7 12 Oeste 29 Oeste 0 -- -- 10
2017-07-29 16:00:00 40 12 Oeste 28 Oeste 0 -- -- 11
2017-07-29 15:00:00 39 16 Oeste 28 Oeste 0 -- -- 13
2017-07-29 14:00:00 37.1 8 Oeste 18 Oeste 0 -- -- 17
2017-07-29 13:00:00 35.4 5 Sudeste 10 Sur 0 -- -- 21
2017-07-29 12:00:00 32.5 4 Norte 9 Este 0 -- -- 24
2017-07-29 11:00:00 29.6 6 Norte 13 Nordeste 0 -- -- 30
2017-07-29 10:00:00 26.8 4 Nordeste 10 Este 0 -- -- 35
2017-07-29 09:00:00 23.8 5 Este 8 Este 0 -- -- 44
2017-07-29 08:00:00 21.1 5 Sudeste 8 Sudeste 0 -- -- 50
2017-07-29 07:00:00 20.3 4 Este 8 Nordeste 0 -- -- 51
2017-07-29 06:00:00 20.6 6 Este 9 Este 0 -- -- 50
2017-07-29 05:00:00 21.2 2 Este 8 Este 0 -- -- 48
2017-07-29 04:00:00 22.1 5 Este 9 Este 0 -- -- 48
2017-07-29 03:00:00 23.7 0 Calma 7 Sudoeste 0 -- -- 43
2017-07-29 02:00:00 25.5 4 Sudoeste 14 Sudoeste 0 -- -- 39
2017-07-29 01:00:00 27.7 10 Sudoeste 20 Sur 0 -- -- 35
2017-07-29 00:00:00 29.5 9 Sudoeste 18 Sudoeste 0 -- -- 27
2017-07-28 23:00:00 31.7 7 Sudoeste 24 Oeste 0 -- -- 24
2017-07-28 22:00:00 33.8 14 Oeste 20 Oeste 0 -- -- 21
2017-07-28 21:00:00 37.2 13 Oeste 21 Oeste 0 -- -- 16
2017-07-28 20:00:00 39.7 14 Oeste 26 Sudoeste 0 -- -- 13
2017-07-28 19:00:00 40.7 16 Oeste 29 Oeste 0 -- -- 12
2017-07-28 18:00:00 41.1 13 Oeste 27 Oeste 0 -- -- 12
2017-07-28 17:00:00 40.7 11 Sudoeste 24 Oeste 0 -- -- 11
2017-07-28 16:00:00 39.9 10 Sudoeste 24 Oeste 0 -- -- 12
2017-07-28 15:00:00 38.9 13 Oeste 22 Oeste 0 -- -- 15
2017-07-28 14:00:00 37.6 7 Oeste 15 Sudoeste 0 -- -- 18
2017-07-28 13:00:00 35.4 5 Este 11 Este 0 -- -- 24
2017-07-28 12:00:00 32.7 4 Sudeste 10 Este 0 -- -- 27
2017-07-28 11:00:00 29.6 6 Este 12 Nordeste 0 -- -- 34
2017-07-28 10:00:00 26.9 5 Nordeste 9 Este 0 -- -- 39
2017-07-28 09:00:00 24.2 2 Este 6 Sudeste 0 -- -- 50
2017-07-28 08:00:00 20.7 5 Sudeste 6 Sudeste 0 -- -- 58
2017-07-28 07:00:00 20.8 4 Este 8 Este 0 -- -- 57
2017-07-28 06:00:00 21.5 3 Nordeste 5 Este 0 -- -- 55
2017-07-28 05:00:00 22 0 Calma 5 Este 0 -- -- 51
2017-07-28 04:00:00 23.1 3 Sur 9 Oeste 0 -- -- 50
2017-07-28 03:00:00 24.3 3 Sudoeste 9 Sur 0 -- -- 47
2017-07-28 02:00:00 26 6 Sudoeste 19 Sudoeste 0 -- -- 43
2017-07-28 01:00:00 27.4 14 Sudoeste 18 Sur 0 -- -- 40
2017-07-28 00:00:00 29.5 5 Oeste 15 Oeste 0 -- -- 38
2017-07-27 23:00:00 31.1 8 Oeste 17 Oeste 0 -- -- 33
2017-07-27 22:00:00 33.5 14 Oeste 25 Sudoeste 0 -- -- 28
2017-07-27 21:00:00 35.9 13 Oeste 21 Oeste 0 -- -- 22
2017-07-27 20:00:00 38.9 10 Oeste 24 Sudoeste 0 -- -- 15
2017-07-27 19:00:00 39.4 14 Oeste 26 Oeste 0 -- -- 15
2017-07-27 18:00:00 39.6 11 Oeste 29 Noroeste 0 -- -- 16
2017-07-27 17:00:00 39 15 Oeste 26 Oeste 0 -- -- 18
2017-07-27 16:00:00 38.1 12 Oeste 19 Oeste 0 -- -- 23
2017-07-27 15:00:00 36.7 9 Oeste 21 Oeste 0 -- -- 25
2017-07-27 14:00:00 34.9 11 Oeste 22 Oeste 0 -- -- 27
2017-07-27 13:00:00 33.1 7 Oeste 15 Oeste 0 -- -- 31
2017-07-27 12:00:00 31.2 4 Noroeste 9 Norte 0 -- -- 35
2017-07-27 11:00:00 28.9 5 Noroeste 9 Noroeste 0 -- -- 43
2017-07-27 10:00:00 26.4 5 Este 9 Nordeste 0 -- -- 53
2017-07-27 09:00:00 23 3 Este 6 Nordeste 0 -- -- 63
2017-07-27 08:00:00 21.1 4 Este 8 Este 0 -- -- 68
2017-07-27 07:00:00 21.3 3 Este 6 Este 0 -- -- 68
2017-07-27 06:00:00 21.8 4 Este 6 Este 0 -- -- 65
2017-07-27 05:00:00 22.7 2 Este 6 Noroeste 0 -- -- 63
2017-07-27 04:00:00 23.9 4 Noroeste 9 Sur 0 -- -- 59
2017-07-27 03:00:00 25.2 7 Sur 16 Sudoeste 0 -- -- 55
2017-07-27 02:00:00 26 10 Sudoeste 18 Sudoeste 0 -- -- 54
2017-07-27 01:00:00 27.5 10 Sudoeste 18 Sudoeste 0 -- -- 50
2017-07-27 00:00:00 28.2 10 Sudoeste 15 Sudoeste 0 -- -- 45
2017-07-26 23:00:00 29.6 9 Oeste 17 Oeste 0 -- -- 40
2017-07-26 22:00:00 31.3 11 Oeste 18 Oeste 0 -- -- 38
2017-07-26 21:00:00 33.6 10 Oeste 14 Oeste 0 -- -- 33
2017-07-26 20:00:00 35.3 8 Oeste 15 Oeste 0 -- -- 29
2017-07-26 19:00:00 36.1 8 Oeste 18 Oeste 0 -- -- 24
2017-07-26 18:00:00 35.5 8 Oeste 16 Oeste 0 -- -- 24
2017-07-26 17:00:00 33.9 6 Noroeste 16 Oeste 0 -- -- 30
2017-07-26 16:00:00 32 7 Oeste 16 Oeste 0 -- -- 34
2017-07-26 15:00:00 30.1 7 Oeste 17 Oeste 0 -- -- 36
2017-07-26 14:00:00 29.5 9 Oeste 19 Oeste 0 -- -- 40
2017-07-26 13:00:00 28.5 10 Sudoeste 19 Oeste 0 -- -- 45
2017-07-26 12:00:00 27.1 11 Oeste 21 Oeste 0 -- -- 49
2017-07-26 11:00:00 25.5 6 Oeste 11 Oeste 0 -- -- 54
2017-07-26 10:00:00 23.4 3 Norte 6 Nordeste 0 -- -- 60
2017-07-26 09:00:00 21 3 Este 5 Este 0 -- -- 67
2017-07-26 08:00:00 20 2 Este 5 Este 0 -- -- 69
2017-07-26 07:00:00 19.6 4 Este 6 Este 0 -- -- 70
2017-07-26 06:00:00 20.6 3 Sudeste 5 Sudoeste 0 -- -- 67
2017-07-26 05:00:00 21.6 6 Sudoeste 9 Sudoeste 0 -- -- 62
2017-07-26 04:00:00 22.3 5 Sudoeste 12 Sudoeste 0 -- -- 58
2017-07-26 03:00:00 23.2 5 Sur 9 Sudoeste 0 -- -- 56
2017-07-26 02:00:00 24.5 4 Sudoeste 14 Oeste 0 -- -- 53
2017-07-26 01:00:00 25.9 9 Oeste 16 Oeste 0 -- -- 47
2017-07-26 00:00:00 27.7 10 Oeste 22 Sudoeste 0 -- -- 42
2017-07-25 23:00:00 29.4 11 Sudoeste 24 Oeste 0 -- -- 35
2017-07-25 22:00:00 31.5 11 Oeste 31 Oeste 0 -- -- 32
2017-07-25 21:00:00 34.3 15 Sudoeste 38 Oeste 0 -- -- 29
2017-07-25 20:00:00 36.9 26 Oeste 39 Oeste 0 -- -- 25
2017-07-25 19:00:00 38.6 18 Oeste 31 Oeste 0 -- -- 19
2017-07-25 18:00:00 39.2 17 Oeste 33 Oeste 0 -- -- 18
2017-07-25 17:00:00 38.8 15 Oeste 27 Oeste 0 -- -- 19
2017-07-25 16:00:00 38.2 10 Oeste 23 Sudoeste 0 -- -- 18
2017-07-25 15:00:00 37.1 11 Sudoeste 22 Oeste 0 -- -- 18
2017-07-25 14:00:00 35.3 9 Sur 15 Sudoeste 0 -- -- 23
2017-07-25 13:00:00 33.8 5 Oeste 14 Sur 0 -- -- 25
2017-07-25 12:00:00 31.3 5 Sudeste 13 Este 0 -- -- 29
2017-07-25 11:00:00 28.4 5 Nordeste 8 Nordeste 0 -- -- 36
2017-07-25 10:00:00 26.8 4 Nordeste 7 Nordeste 0 -- -- 46
2017-07-25 09:00:00 24.1 0 Calma 4 Nordeste 0 -- -- 56
2017-07-25 08:00:00 21.1 0 Calma 4 Sudoeste 0 -- -- 65
2017-07-25 07:00:00 22.2 2 Oeste 10 Oeste 0 -- -- 60
2017-07-25 06:00:00 22.7 7 Sudoeste 11 Sudoeste 0 -- -- 59
2017-07-25 05:00:00 22.8 3 Oeste 10 Sudoeste 0 -- -- 57
2017-07-25 04:00:00 23.4 4 Oeste 12 Oeste 0 -- -- 56
2017-07-25 03:00:00 24.2 6 Oeste 9 Sudoeste 0 -- -- 53
2017-07-25 02:00:00 25.1 2 Oeste 9 Sudoeste 0 -- -- 51
2017-07-25 01:00:00 26.9 3 Oeste 20 Sudoeste 0 -- -- 45
2017-07-25 00:00:00 28.9 12 Sudoeste 20 Sudoeste 0 -- -- 38
2017-07-24 23:00:00 30.8 12 Sudoeste 22 Oeste 0 -- -- 34
2017-07-24 22:00:00 33.4 15 Oeste 30 Sudoeste 0 -- -- 29
2017-07-24 21:00:00 37.3 9 Noroeste 27 Noroeste 0 -- -- 16
2017-07-24 20:00:00 38.9 16 Noroeste 28 Oeste 0 -- -- 14
2017-07-24 19:00:00 39.3 18 Oeste 32 Oeste 0 -- -- 17
2017-07-24 18:00:00 39.6 10 Sudoeste 24 Oeste 0 -- -- 19
2017-07-24 17:00:00 38.4 7 Oeste 25 Oeste 0 -- -- 20
2017-07-24 16:00:00 37.4 12 Oeste 23 Oeste 0 -- -- 23
2017-07-24 15:00:00 36.5 10 Sudoeste 29 Sudoeste 0 -- -- 23
2017-07-24 14:00:00 34.9 9 Sudoeste 16 Sudoeste 0 -- -- 26
2017-07-24 13:00:00 33.1 7 Sudoeste 14 Sudoeste 0 -- -- 30
2017-07-24 12:00:00 30.9 5 Oeste 11 Oeste 0 -- -- 34
2017-07-24 11:00:00 28.7 4 Noroeste 9 Oeste 0 -- -- 40
2017-07-24 10:00:00 25.2 3 Norte 6 Noroeste 0 -- -- 46
2017-07-24 09:00:00 22.7 3 Nordeste 5 Nordeste 0 -- -- 52
2017-07-24 08:00:00 19.5 4 Sudeste 6 Sudeste 0 -- -- 60
2017-07-24 07:00:00 18.7 0 Calma 3 Nordeste 0 -- -- 61
2017-07-24 06:00:00 19.3 3 Noroeste 8 Sudoeste 0 -- -- 60
2017-07-24 05:00:00 20.5 0 Calma 6 Sudoeste 0 -- -- 54
2017-07-24 04:00:00 21.6 4 Sudoeste 6 Sudoeste 0 -- -- 49
2017-07-24 03:00:00 22.6 4 Sudoeste 12 Oeste 0 -- -- 46
2017-07-24 02:00:00 24.4 4 Sudoeste 17 Sudoeste 0 -- -- 40
2017-07-24 01:00:00 26.2 6 Sudoeste 17 Sudoeste 0 -- -- 38
2017-07-24 00:00:00 27.9 7 Sudoeste 17 Sudoeste 0 -- -- 35
2017-07-23 23:00:00 29.9 5 Sudoeste 28 Oeste 0 -- -- 32
2017-07-23 22:00:00 32.3 18 Oeste 30 Oeste 0 -- -- 29
2017-07-23 21:00:00 34.9 14 Oeste 26 Oeste 0 -- -- 23
2017-07-23 20:00:00 37 18 Oeste 28 Oeste 0 -- -- 17
2017-07-23 19:00:00 37.9 13 Oeste 21 Oeste 0 -- -- 18
2017-07-23 18:00:00 37.9 13 Oeste 20 Oeste 0 -- -- 18
2017-07-23 17:00:00 37.4 8 Sudoeste 19 Sudoeste 0 -- -- 17
2017-07-23 16:00:00 36.4 9 Sudoeste 19 Oeste 0 -- -- 15
2017-07-23 15:00:00 34.9 8 Sur 17 Sudoeste 0 -- -- 13
2017-07-23 14:00:00 33.2 7 Sudoeste 17 Oeste 0 -- -- 27
2017-07-23 13:00:00 31.1 5 Sur 14 Sur 0 -- -- 33
2017-07-23 12:00:00 29 3 Noroeste 12 Noroeste 0 -- -- 37
2017-07-23 11:00:00 26.8 4 Noroeste 9 Noroeste 0 -- -- 43
2017-07-23 10:00:00 23.8 3 Sudoeste 7 Oeste 0 -- -- 53
2017-07-23 09:00:00 21.6 3 Este 6 Este 0 -- -- 58
2017-07-23 08:00:00 18.6 0 Calma 4 Este 0 -- -- 68
2017-07-23 07:00:00 18.5 0 Calma 5 Sur 0 -- -- 68
2017-07-23 06:00:00 19.2 2 Sudoeste 5 Sur 0 -- -- 65
2017-07-23 05:00:00 19.8 4 Sur 6 Sur 0 -- -- 63
2017-07-23 04:00:00 20.7 4 Oeste 9 Sudoeste 0 -- -- 59
2017-07-23 03:00:00 22 4 Sudoeste 17 Sudoeste 0 -- -- 55
2017-07-23 02:00:00 23.1 5 Sudoeste 18 Sudoeste 0 -- -- 52
2017-07-23 01:00:00 24.6 12 Sudoeste 23 Sudoeste 0 -- -- 46
2017-07-23 00:00:00 26.8 9 Sudoeste 24 Oeste 0 -- -- 37